Time;durP1;ratioP1;P1;durP2;ratioP2;P2;SDS_P1;SDS_P2;PMS_P1;PMS_P2;Temp;Humidity;BMP_temperature;BMP_pressure;BME280_temperature;BME280_humidity;BME280_pressure;Samples;Min_cycle;Max_cycle;Signal;HPM_P1;HPM_P2
2023/03/12 00:01:19;;;;;;;0.63;0.63;;;;;;;3.52;58.85;94989.38;4383189;32;20318;-50
2023/03/12 00:03:46;;;;;;;1.93;1.13;;;;;;;3.59;58.54;94993.31;4383849;32;20294;-53
2023/03/12 00:06:12;;;;;;;0.63;0.63;;;;;;;3.38;58.88;94996.88;4392258;32;20307;-50
2023/03/12 00:08:38;;;;;;;1.10;1.07;;;;;;;3.62;59.08;94987.56;4389227;32;20269;-51
2023/03/12 00:11:16;;;;;;;1.13;1.13;;;;;;;3.47;59.11;94992.75;4390847;32;20196;-52
2023/03/12 00:13:42;;;;;;;0.70;0.70;;;;;;;3.47;59.24;94994.59;4385267;32;20198;-51
2023/03/12 00:16:13;;;;;;;1.83;0.93;;;;;;;3.47;59.38;94984.09;4391403;32;20268;-51
2023/03/12 00:18:39;;;;;;;0.83;0.83;;;;;;;3.26;59.58;94977.97;4393112;32;20184;-50
2023/03/12 00:24:26;;;;;;;2.53;0.77;;;;;;;3.32;60.07;94992.69;4386697;32;20279;-50
2023/03/12 00:26:52;;;;;;;0.67;0.67;;;;;;;3.48;59.38;94985.66;4372242;32;20323;-52
2023/03/12 00:29:17;;;;;;;1.20;1.07;;;;;;;3.58;58.94;94986.47;4386760;32;20267;-52
2023/03/12 00:31:43;;;;;;;1.13;1.13;;;;;;;3.50;59.38;94984.38;4390558;32;20242;-50
2023/03/12 00:34:09;;;;;;;1.23;1.23;;;;;;;3.30;59.73;94979.84;4390838;32;20203;-52
2023/03/12 00:36:34;;;;;;;4.33;1.17;;;;;;;3.29;60.17;94991.38;4376302;32;21706;-53
2023/03/12 00:39:00;;;;;;;1.33;1.03;;;;;;;3.61;59.36;94995.66;4384261;32;20273;-50
2023/03/12 00:41:26;;;;;;;2.10;1.07;;;;;;;3.50;59.35;94994.06;4374555;32;20211;-48
2023/03/12 00:43:52;;;;;;;1.27;1.20;;;;;;;3.59;59.81;94987.28;4390586;32;20226;-51
2023/03/12 00:46:18;;;;;;;0.80;0.80;;;;;;;3.51;59.12;94999.06;4380202;32;20196;-52
2023/03/12 00:48:44;;;;;;;1.07;0.80;;;;;;;3.28;60.27;94991.63;4378484;32;20185;-51
2023/03/12 00:51:10;;;;;;;0.70;0.70;;;;;;;3.32;60.61;94993.47;4379138;32;20363;-51
2023/03/12 00:53:35;;;;;;;1.00;1.00;;;;;;;3.16;61.77;94999.66;4375526;32;20204;-51
2023/03/12 00:56:03;;;;;;;1.40;1.40;;;;;;;2.99;62.21;94996.44;4376853;32;20280;-50
2023/03/12 00:58:28;;;;;;;1.73;1.30;;;;;;;3.01;62.06;94992.53;4378786;32;20192;-50
2023/03/12 01:00:53;;;;;;;0.53;0.53;;;;;;;2.94;62.16;94997.19;4378563;32;20349;-49
2023/03/12 01:03:18;;;;;;;1.53;1.53;;;;;;;3.07;61.52;94990.72;4393153;32;20224;-48
2023/03/12 01:05:44;;;;;;;1.17;1.17;;;;;;;3.23;61.41;94981.91;4379376;32;20177;-47
2023/03/12 01:08:10;;;;;;;0.60;0.60;;;;;;;3.24;61.43;94985.31;4390594;32;20185;-51
2023/03/12 01:10:39;;;;;;;2.10;1.30;;;;;;;3.14;61.54;94991.28;4392842;32;20257;-51
2023/03/12 01:13:05;;;;;;;0.73;0.73;;;;;;;3.17;61.90;94996.00;4373057;32;20379;-51
2023/03/12 01:15:30;;;;;;;2.00;1.90;;;;;;;3.12;61.99;94994.16;4369885;32;20277;-50
2023/03/12 01:17:55;;;;;;;2.83;1.23;;;;;;;3.37;60.78;94998.72;4392235;32;20193;-51
2023/03/12 01:20:21;;;;;;;1.80;1.53;;;;;;;3.36;60.51;94999.75;4378281;32;20206;-49
2023/03/12 01:22:48;;;;;;;0.83;0.83;;;;;;;3.14;61.24;94993.91;4374729;32;20234;-53
2023/03/12 01:25:13;;;;;;;0.50;0.50;;;;;;;2.88;62.40;94990.38;4386369;32;20367;-51
2023/03/12 01:27:38;;;;;;;2.63;0.90;;;;;;;3.02;62.42;94995.94;4375849;32;20417;-48
2023/03/12 01:30:04;;;;;;;1.13;1.13;;;;;;;3.12;62.00;95001.22;4382417;32;20324;-51
2023/03/12 01:32:30;;;;;;;0.73;0.73;;;;;;;3.37;61.01;94995.31;4387752;32;20193;-53
2023/03/12 01:34:57;;;;;;;0.80;0.80;;;;;;;3.59;60.00;94995.13;4376145;32;20214;-49
2023/03/12 01:37:22;;;;;;;0.50;0.50;;;;;;;3.48;60.62;95006.66;4375340;32;20203;-51
2023/03/12 01:39:47;;;;;;;0.60;0.60;;;;;;;3.18;61.92;95007.28;4389276;32;20292;-52
2023/03/12 01:42:13;;;;;;;0.63;0.63;;;;;;;3.25;61.64;95008.63;4382495;32;20198;-51
2023/03/12 01:45:00;;;;;;;0.50;0.50;;;;;;;3.32;61.71;95013.66;4387704;32;20177;-52
2023/03/12 01:47:30;;;;;;;0.70;0.70;;;;;;;3.55;60.88;95004.56;4380189;32;20295;-51
2023/03/12 01:49:56;;;;;;;0.63;0.63;;;;;;;3.66;60.19;94998.31;4385945;32;20269;-47
2023/03/12 01:52:26;;;;;;;1.43;1.33;;;;;;;3.84;59.31;95004.91;4376130;32;20335;-51
2023/03/12 01:55:04;;;;;;;1.83;1.23;;;;;;;3.59;59.84;95001.16;4382811;32;20273;-51
2023/03/12 01:57:37;;;;;;;0.40;0.40;;;;;;;3.65;60.25;94994.13;4391549;32;20309;-49
2023/03/12 02:00:12;;;;;;;0.97;0.67;;;;;;;3.65;60.16;94996.75;4387640;32;20338;-53
2023/03/12 02:02:38;;;;;;;0.90;0.90;;;;;;;3.53;60.02;94991.72;4369702;32;20289;-49
2023/03/12 02:05:12;;;;;;;0.43;0.43;;;;;;;3.13;61.44;94997.56;4371522;32;20273;-53
2023/03/12 02:07:37;;;;;;;0.70;0.70;;;;;;;3.38;60.98;94995.06;4378242;32;20273;-53
2023/03/12 02:10:04;;;;;;;1.33;1.23;;;;;;;3.36;61.24;94994.53;4371212;32;20295;-53
2023/03/12 02:12:30;;;;;;;0.60;0.60;;;;;;;3.45;60.45;94989.59;4363131;32;20189;-48
2023/03/12 02:14:55;;;;;;;0.87;0.87;;;;;;;3.33;61.68;94992.41;4390685;32;20283;-51
2023/03/12 02:17:21;;;;;;;0.43;0.43;;;;;;;3.51;61.13;95006.94;4377879;32;20180;-52
2023/03/12 02:20:06;;;;;;;0.27;0.27;;;;;;;3.19;61.69;95004.41;4375776;32;20192;-47
2023/03/12 02:22:35;;;;;;;2.70;1.47;;;;;;;3.43;60.82;95013.44;4386286;32;20211;-48
2023/03/12 02:25:29;;;;;;;0.87;0.87;;;;;;;3.30;61.75;95021.00;4377708;32;20264;-52
2023/03/12 02:27:58;;;;;;;0.40;0.40;;;;;;;3.24;61.51;95024.63;4353807;32;20281;-50
2023/03/12 02:30:25;;;;;;;0.87;0.87;;;;;;;3.20;61.55;95024.34;4363948;32;20332;-53
2023/03/12 02:32:51;;;;;;;0.60;0.60;;;;;;;3.32;61.49;95030.19;4372465;32;20286;-51
2023/03/12 02:35:17;;;;;;;0.80;0.80;;;;;;;3.24;61.61;95020.16;4360296;32;20280;-50
2023/03/12 02:37:50;;;;;;;0.13;0.13;;;;;;;3.03;62.29;95031.56;4357802;32;20277;-51
2023/03/12 02:40:37;;;;;;;0.63;0.63;;;;;;;3.09;62.13;95026.13;4358609;32;20223;-48
2023/03/12 02:43:06;;;;;;;0.77;0.77;;;;;;;3.29;61.51;95028.06;4374040;32;20293;-52
2023/03/12 02:45:33;;;;;;;0.40;0.30;;;;;;;3.42;61.06;95019.72;4376389;32;20285;-52
2023/03/12 02:47:58;;;;;;;1.10;0.60;;;;;;;3.51;60.90;95021.88;4374101;32;20276;-50
2023/03/12 02:50:23;;;;;;;0.20;0.20;;;;;;;3.44;61.08;95022.09;4360681;32;20402;-53
2023/03/12 02:52:49;;;;;;;0.30;0.30;;;;;;;3.40;61.75;95021.81;4374582;32;20207;-52
2023/03/12 02:55:14;;;;;;;0.67;0.50;;;;;;;3.33;61.73;95021.25;4376319;32;20192;-52
2023/03/12 02:57:39;;;;;;;0.30;0.30;;;;;;;3.05;62.81;95024.25;4376195;32;20231;-49
2023/03/12 03:00:10;;;;;;;0.50;0.50;;;;;;;3.07;63.20;95032.66;4368131;32;20313;-51
2023/03/12 03:02:36;;;;;;;0.60;0.60;;;;;;;2.97;63.78;95032.56;4371340;32;20192;-49
2023/03/12 03:05:01;;;;;;;1.07;0.87;;;;;;;3.13;63.50;95036.88;4376238;32;20307;-52
2023/03/12 03:07:26;;;;;;;0.50;0.50;;;;;;;2.90;64.48;95037.25;4376315;32;20196;-53
2023/03/12 03:09:52;;;;;;;0.77;0.77;;;;;;;3.19;63.48;95035.06;4374710;32;20188;-53
2023/03/12 03:12:17;;;;;;;0.40;0.40;;;;;;;3.01;64.44;95036.28;4374219;32;20204;-49
2023/03/12 03:14:42;;;;;;;0.37;0.37;;;;;;;3.24;63.69;95028.03;4370508;32;20235;-51
2023/03/12 03:17:08;;;;;;;0.40;0.40;;;;;;;3.30;63.71;95031.47;4365265;32;20200;-53
2023/03/12 03:19:33;;;;;;;0.57;0.57;;;;;;;3.10;64.85;95032.94;4359503;32;20238;-51
2023/03/12 03:21:58;;;;;;;0.47;0.47;;;;;;;3.36;64.28;95033.84;4357533;32;20334;-49
2023/03/12 03:24:24;;;;;;;0.57;0.23;;;;;;;3.63;63.57;95036.34;4365795;32;20185;-50
2023/03/12 03:26:49;;;;;;;0.63;0.63;;;;;;;3.56;64.07;95038.38;4370299;32;20255;-51
2023/03/12 03:29:15;;;;;;;1.27;1.27;;;;;;;3.42;64.75;95038.06;4378277;32;20180;-51
2023/03/12 03:31:41;;;;;;;0.60;0.60;;;;;;;3.60;65.13;95041.28;4371437;32;20211;-50
2023/03/12 03:34:06;;;;;;;0.93;0.80;;;;;;;3.47;65.92;95044.41;4366865;32;20277;-49
2023/03/12 03:36:33;;;;;;;0.40;0.40;;;;;;;3.48;66.78;95045.97;4376662;32;20176;-51
2023/03/12 03:38:59;;;;;;;0.80;0.80;;;;;;;3.45;67.46;95042.03;4376763;32;20207;-50
2023/03/12 03:41:25;;;;;;;0.73;0.73;;;;;;;3.48;68.00;95038.09;4378526;32;20280;-49
2023/03/12 03:43:50;;;;;;;1.30;1.27;;;;;;;3.60;67.92;95036.06;4390635;32;20184;-52
2023/03/12 03:46:15;;;;;;;0.80;0.80;;;;;;;3.80;67.07;95041.38;4380883;32;20256;-51
2023/03/12 03:48:41;;;;;;;0.70;0.70;;;;;;;3.66;67.94;95040.28;4395619;32;20195;-51
2023/03/12 03:51:08;;;;;;;1.40;1.33;;;;;;;3.50;69.00;95041.28;4393940;32;20245;-50
2023/03/12 03:53:34;;;;;;;1.23;1.23;;;;;;;3.71;68.44;95038.47;4393405;32;20196;-47
2023/03/12 03:56:10;;;;;;;1.20;1.20;;;;;;;3.71;68.25;95043.72;4379787;32;20342;-50
2023/03/12 03:58:36;;;;;;;1.67;1.57;;;;;;;3.67;68.83;95047.09;4390977;32;20339;-52
2023/03/12 04:01:01;;;;;;;1.17;1.17;;;;;;;3.76;68.69;95045.56;4387305;32;20306;-53
2023/03/12 04:03:27;;;;;;;2.10;2.00;;;;;;;3.54;70.13;95052.81;4390618;32;20200;-53
2023/03/12 04:05:58;;;;;;;1.50;1.40;;;;;;;3.33;71.26;95051.91;4376398;32;20196;-52
2023/03/12 04:08:23;;;;;;;0.73;0.73;;;;;;;3.41;71.46;95060.09;4380926;32;20229;-53
2023/03/12 04:10:49;;;;;;;1.23;1.13;;;;;;;3.57;71.07;95062.78;4389973;32;20288;-51
2023/03/12 04:13:14;;;;;;;1.03;1.03;;;;;;;3.62;70.99;95065.44;4372429;32;20195;-53
2023/03/12 04:15:46;;;;;;;1.43;1.43;;;;;;;3.78;70.34;95059.19;4390766;32;20194;-50
2023/03/12 04:18:11;;;;;;;0.83;0.83;;;;;;;3.79;70.74;95058.16;4387542;32;20216;-53
2023/03/12 04:20:36;;;;;;;7.87;1.83;;;;;;;3.75;71.05;95059.72;4388672;32;20280;-51
2023/03/12 04:23:02;;;;;;;1.40;1.40;;;;;;;3.68;71.21;95064.41;4379682;32;20188;-50
2023/03/12 04:25:27;;;;;;;0.50;0.50;;;;;;;3.81;71.20;95069.19;4376946;32;20264;-50
2023/03/12 04:27:52;;;;;;;1.13;1.13;;;;;;;3.94;70.69;95063.47;4377627;32;20207;-51
2023/03/12 04:30:18;;;;;;;0.87;0.87;;;;;;;3.74;71.39;95069.41;4392750;32;20203;-48
2023/03/12 04:32:43;;;;;;;0.73;0.73;;;;;;;3.82;71.31;95070.75;4385159;32;20194;-52
2023/03/12 04:35:08;;;;;;;1.47;1.47;;;;;;;3.62;72.64;95065.44;4387548;32;20177;-50
2023/03/12 04:37:34;;;;;;;0.80;0.80;;;;;;;3.79;72.44;95066.03;4386258;32;20181;-51
2023/03/12 04:40:01;;;;;;;0.80;0.73;;;;;;;3.73;72.99;95067.88;4387223;32;20199;-51
2023/03/12 04:42:27;;;;;;;1.93;1.33;;;;;;;3.78;72.83;95059.19;4379938;32;20238;-50
2023/03/12 04:44:53;;;;;;;1.97;1.87;;;;;;;3.79;73.15;95064.19;4379023;32;20277;-49
2023/03/12 04:47:18;;;;;;;0.67;0.67;;;;;;;3.89;73.18;95073.94;4393563;32;20192;-52
2023/03/12 04:49:43;;;;;;;1.37;1.27;;;;;;;3.83;73.50;95066.31;4387350;32;20180;-48
2023/03/12 04:52:08;;;;;;;0.63;0.63;;;;;;;3.68;74.25;95075.69;4387219;32;20195;-51
2023/03/12 04:54:34;;;;;;;0.67;0.67;;;;;;;3.66;74.87;95077.00;4385425;32;20181;-50
2023/03/12 04:56:59;;;;;;;1.17;1.17;;;;;;;3.83;74.27;95055.81;4388162;32;20260;-48
2023/03/12 04:59:24;;;;;;;2.60;1.40;;;;;;;3.86;74.30;95058.72;4377514;32;20247;-52
2023/03/12 05:01:50;;;;;;;1.33;1.23;;;;;;;4.01;73.70;95060.59;4389719;32;20195;-52
2023/03/12 05:04:16;;;;;;;0.83;0.83;;;;;;;4.01;73.54;95048.25;4392442;32;20252;-52
2023/03/12 05:06:41;;;;;;;1.30;1.20;;;;;;;4.33;72.62;95049.91;4381252;32;20192;-48
2023/03/12 05:09:07;;;;;;;1.40;1.40;;;;;;;4.39;72.53;95048.84;4388011;32;20240;-51
2023/03/12 05:11:32;;;;;;;0.93;0.93;;;;;;;4.43;72.64;95045.44;4376344;32;20181;-50
2023/03/12 05:13:57;;;;;;;1.30;1.30;;;;;;;4.38;72.81;95042.03;4392333;32;20197;-53
2023/03/12 05:16:23;;;;;;;0.70;0.70;;;;;;;4.17;74.14;95043.03;4378797;32;20223;-49
2023/03/12 05:18:48;;;;;;;1.90;1.80;;;;;;;4.14;74.01;95045.16;4384238;32;20203;-52
2023/03/12 05:21:17;;;;;;;1.07;1.07;;;;;;;4.34;73.55;95048.88;4380151;32;20192;-52
2023/03/12 05:23:42;;;;;;;0.93;0.93;;;;;;;4.19;73.37;95049.59;4379088;32;20207;-49
2023/03/12 05:26:20;;;;;;;0.87;0.87;;;;;;;4.14;73.43;95044.38;4389793;32;20285;-50
2023/03/12 05:28:46;;;;;;;0.83;0.83;;;;;;;3.87;73.58;95043.75;4387246;32;20188;-56
2023/03/12 05:31:12;;;;;;;0.87;0.87;;;;;;;3.52;74.53;95044.44;4391957;32;20364;-51
2023/03/12 05:33:38;;;;;;;0.70;0.70;;;;;;;3.37;75.33;95045.13;4375740;32;20193;-50
2023/03/12 05:36:03;;;;;;;1.20;1.20;;;;;;;3.34;75.52;95054.28;4387931;32;20582;-51
2023/03/12 05:38:29;;;;;;;0.90;0.90;;;;;;;3.64;74.49;95037.91;4390565;32;20184;-48
2023/03/12 05:40:57;;;;;;;0.83;0.83;;;;;;;3.66;74.46;95053.41;4390157;32;20192;-48
2023/03/12 05:43:22;;;;;;;1.30;1.20;;;;;;;3.64;74.29;95051.03;4389431;32;20193;-50
2023/03/12 05:45:48;;;;;;;1.07;1.07;;;;;;;3.57;74.89;95057.53;4377636;32;20330;-49
2023/03/12 05:48:13;;;;;;;1.47;1.37;;;;;;;3.59;74.90;95056.25;4380151;32;20207;-52
2023/03/12 05:50:38;;;;;;;0.80;0.80;;;;;;;3.93;73.91;95051.41;4378702;32;20188;-51
2023/03/12 05:53:04;;;;;;;0.67;0.67;;;;;;;3.95;73.51;95059.78;4392085;32;20255;-46
2023/03/12 05:55:29;;;;;;;0.73;0.73;;;;;;;3.84;74.12;95055.56;4384246;32;20208;-45
2023/03/12 05:57:55;;;;;;;0.50;0.50;;;;;;;4.12;73.08;95065.62;4392536;32;20185;-51
2023/03/12 06:00:20;;;;;;;0.60;0.60;;;;;;;4.09;73.02;95066.12;4385066;32;20243;-49
2023/03/12 06:02:46;;;;;;;1.10;1.10;;;;;;;4.24;72.89;95067.22;4376796;32;20192;-52
2023/03/12 06:05:12;;;;;;;2.90;1.70;;;;;;;4.21;73.02;95062.47;4393104;32;20207;-53
2023/03/12 06:07:37;;;;;;;1.33;1.33;;;;;;;4.20;72.97;95066.94;4391682;32;20184;-49
2023/03/12 06:10:03;;;;;;;1.40;0.80;;;;;;;4.43;72.59;95065.66;4385222;32;20205;-50
2023/03/12 06:12:28;;;;;;;1.13;1.13;;;;;;;4.41;72.91;95062.50;4392568;32;20192;-47
2023/03/12 06:14:53;;;;;;;1.07;1.07;;;;;;;4.39;72.66;95051.47;4377667;32;20250;-48
2023/03/12 06:17:19;;;;;;;2.80;1.77;;;;;;;4.49;72.27;95054.13;4385343;32;20203;-49
2023/03/12 06:19:44;;;;;;;1.67;1.10;;;;;;;4.24;73.52;95056.72;4379882;32;20259;-49
2023/03/12 06:22:09;;;;;;;0.97;0.97;;;;;;;4.35;73.68;95058.31;4380912;32;20188;-52
2023/03/12 06:24:35;;;;;;;1.33;1.27;;;;;;;4.43;73.02;95047.28;4370485;32;20263;-50
2023/03/12 06:27:00;;;;;;;1.10;1.10;;;;;;;4.29;73.86;95049.66;4377789;32;20219;-49
2023/03/12 06:29:25;;;;;;;1.03;1.03;;;;;;;4.49;73.16;95041.00;4377641;32;20184;-50
2023/03/12 06:31:51;;;;;;;0.87;0.87;;;;;;;4.13;74.10;95035.72;4377483;32;20252;-48
2023/03/12 06:34:16;;;;;;;0.83;0.83;;;;;;;4.29;73.93;95044.41;4387876;32;20349;-51
2023/03/12 06:36:42;;;;;;;1.47;1.37;;;;;;;4.58;72.68;95042.03;4387868;32;20184;-48
2023/03/12 06:39:08;;;;;;;1.20;1.20;;;;;;;4.70;71.94;95034.72;4376495;32;20176;-49
2023/03/12 06:41:34;;;;;;;1.33;1.30;;;;;;;4.56;72.67;95041.53;4371760;32;20184;-47
2023/03/12 06:44:04;;;;;;;0.77;0.77;;;;;;;4.46;73.30;95046.78;4375922;32;20310;-49
2023/03/12 06:46:30;;;;;;;0.93;0.93;;;;;;;4.49;73.45;95054.13;4377732;32;20295;-49
2023/03/12 06:48:55;;;;;;;1.33;1.03;;;;;;;4.69;72.90;95050.72;4382483;32;20274;-46
2023/03/12 06:51:21;;;;;;;0.43;0.43;;;;;;;4.63;73.10;95060.44;4376280;32;20185;-49
2023/03/12 06:53:46;;;;;;;0.57;0.57;;;;;;;4.80;72.93;95062.78;4391713;32;20195;-50
2023/03/12 06:56:12;;;;;;;0.87;0.87;;;;;;;4.61;73.49;95067.78;4389840;32;20180;-48
2023/03/12 06:58:38;;;;;;;0.63;0.63;;;;;;;4.61;73.79;95061.75;4375651;32;20201;-49
2023/03/12 07:01:04;;;;;;;1.10;1.10;;;;;;;4.92;73.26;95070.44;4376220;32;20292;-50
2023/03/12 07:03:29;;;;;;;3.80;0.83;;;;;;;4.85;73.79;95075.94;4391226;32;20200;-49
2023/03/12 07:05:56;;;;;;;1.10;1.10;;;;;;;4.72;74.98;95074.63;4391778;32;20276;-49
2023/03/12 07:08:22;;;;;;;0.50;0.50;;;;;;;4.95;74.64;95078.59;4389454;32;20184;-51
2023/03/12 07:10:47;;;;;;;0.30;0.30;;;;;;;4.76;76.06;95082.78;4384728;32;20299;-50
2023/03/12 07:13:12;;;;;;;0.60;0.60;;;;;;;4.87;76.22;95084.34;4392761;32;20188;-51
2023/03/12 07:15:38;;;;;;;1.57;0.73;;;;;;;4.80;77.12;95083.81;4370072;32;20177;-49
2023/03/12 07:18:06;;;;;;;0.60;0.60;;;;;;;4.78;77.93;95088.56;4377637;32;20190;-50
2023/03/12 07:20:32;;;;;;;0.60;0.60;;;;;;;4.58;79.39;95088.53;4391109;32;20185;-49
2023/03/12 07:22:58;;;;;;;0.33;0.33;;;;;;;4.60;80.01;95081.97;4391243;32;20295;-48
2023/03/12 07:25:24;;;;;;;1.03;1.03;;;;;;;4.67;80.70;95081.72;4391742;32;20214;-50
2023/03/12 07:27:49;;;;;;;2.07;1.07;;;;;;;4.88;80.25;95079.88;4380454;32;20277;-49
2023/03/12 07:30:15;;;;;;;0.60;0.60;;;;;;;5.07;80.10;95083.56;4387395;32;20195;-51
2023/03/12 07:32:40;;;;;;;0.27;0.27;;;;;;;4.84;81.88;95083.03;4387555;32;20180;-53
2023/03/12 07:35:06;;;;;;;0.20;0.20;;;;;;;5.01;81.94;95081.97;4392701;32;20258;-48
2023/03/12 07:37:31;;;;;;;0.57;0.57;;;;;;;4.80;82.82;95081.19;4393359;32;20201;-50
2023/03/12 07:39:57;;;;;;;3.37;1.13;;;;;;;4.57;84.15;95076.47;4387358;32;20204;-49
2023/03/12 07:42:22;;;;;;;0.60;0.60;;;;;;;4.78;84.45;95078.06;4387572;32;20230;-51
2023/03/12 07:44:47;;;;;;;0.57;0.57;;;;;;;4.75;85.41;95076.75;4390560;32;20203;-48
2023/03/12 07:47:13;;;;;;;0.57;0.57;;;;;;;4.86;85.08;95074.09;4395872;32;20188;-52
2023/03/12 07:49:40;;;;;;;0.30;0.30;;;;;;;4.99;85.27;95068.34;4389454;32;20283;-49
2023/03/12 07:52:08;;;;;;;0.10;0.10;;;;;;;5.25;84.60;95077.75;4391625;32;20271;-51
2023/03/12 07:54:34;;;;;;;0.37;0.37;;;;;;;5.25;84.67;95075.13;4392621;32;20295;-51
2023/03/12 07:57:00;;;;;;;0.43;0.43;;;;;;;5.21;84.06;95081.16;4394124;32;20373;-50
2023/03/12 07:59:26;;;;;;;1.40;0.53;;;;;;;5.23;84.12;95081.69;4387442;32;20188;-48
2023/03/12 08:01:52;;;;;;;0.43;0.43;;;;;;;5.23;84.04;95081.69;4389701;32;20192;-46
2023/03/12 08:04:17;;;;;;;0.40;0.40;;;;;;;4.99;84.37;95076.22;4392434;32;20338;-48
2023/03/12 08:06:42;;;;;;;0.40;0.40;;;;;;;5.17;84.13;95078.31;4378599;32;20185;-50
2023/03/12 08:09:08;;;;;;;0.27;0.27;;;;;;;5.08;84.54;95085.13;4391690;32;20227;-49
2023/03/12 08:11:35;;;;;;;0.13;0.13;;;;;;;5.09;84.39;95095.38;4389396;32;20240;-47
2023/03/12 08:14:01;;;;;;;0.77;0.30;;;;;;;5.23;84.06;95100.87;4379212;32;20196;-47
2023/03/12 08:16:26;;;;;;;1.10;0.60;;;;;;;5.35;82.62;95093.53;4388120;32;20337;-49
2023/03/12 08:18:51;;;;;;;0.20;0.20;;;;;;;5.28;82.53;95095.62;4389822;32;20209;-48
2023/03/12 08:21:17;;;;;;;0.60;0.60;;;;;;;5.45;81.45;95098.75;4378567;32;20230;-49
2023/03/12 08:23:42;;;;;;;0.50;0.50;;;;;;;5.19;80.45;95102.50;4389249;32;20192;-47
2023/03/12 08:26:07;;;;;;;0.40;0.40;;;;;;;5.14;81.72;95097.25;4378204;32;20196;-45
2023/03/12 08:28:33;;;;;;;0.90;0.80;;;;;;;5.23;81.69;95098.25;4376600;32;20208;-49
2023/03/12 08:30:59;;;;;;;0.30;0.30;;;;;;;5.40;82.31;95098.75;4385597;32;20197;-46
2023/03/12 08:33:25;;;;;;;0.30;0.30;;;;;;;5.36;82.47;95096.94;4383045;32;20271;-50
2023/03/12 08:35:51;;;;;;;0.50;0.50;;;;;;;5.41;82.96;95097.72;4390666;32;20280;-48
2023/03/12 08:38:18;;;;;;;4.87;1.10;;;;;;;5.61;82.31;95102.13;4393208;32;20298;-49
2023/03/12 08:40:43;;;;;;;0.30;0.30;;;;;;;5.75;82.14;95102.38;4378727;32;20211;-49
2023/03/12 08:43:09;;;;;;;0.50;0.50;;;;;;;5.80;81.85;95105.00;4372713;32;20280;-50
2023/03/12 08:45:37;;;;;;;0.40;0.40;;;;;;;5.53;82.54;95110.59;4378983;32;20244;-47
2023/03/12 08:48:05;;;;;;;0.20;0.20;;;;;;;5.28;83.86;95108.00;4377701;32;20208;-50
2023/03/12 08:50:31;;;;;;;1.40;0.97;;;;;;;5.44;83.97;95112.97;4377014;32;20284;-49
2023/03/12 08:52:57;;;;;;;0.83;0.83;;;;;;;5.47;84.59;95111.66;4388338;32;20398;-47
2023/03/12 08:55:22;;;;;;;0.30;0.30;;;;;;;5.23;85.84;95114.03;4386068;32;20223;-50
2023/03/12 08:57:48;;;;;;;0.33;0.33;;;;;;;5.33;87.16;95123.78;4388978;32;20271;-52
2023/03/12 09:00:15;;;;;;;0.80;0.80;;;;;;;5.52;87.37;95124.78;4381156;32;20180;-50
2023/03/12 09:02:45;;;;;;;0.70;0.70;;;;;;;5.50;87.76;95125.06;4390357;32;20207;-49
2023/03/12 09:05:10;;;;;;;0.40;0.40;;;;;;;5.47;87.96;95122.16;4392034;32;20273;-50
2023/03/12 09:07:37;;;;;;;0.37;0.37;;;;;;;5.37;89.44;95130.87;4388829;32;20372;-50
2023/03/12 09:10:03;;;;;;;0.10;0.10;;;;;;;5.42;90.55;95117.69;4378511;32;20233;-48
2023/03/12 09:12:28;;;;;;;0.77;0.77;;;;;;;5.70;89.58;95121.59;4385785;32;20280;-51
2023/03/12 09:14:53;;;;;;;0.53;0.53;;;;;;;5.84;89.36;95121.81;4374281;32;20271;-50
2023/03/12 09:17:19;;;;;;;3.63;0.83;;;;;;;5.88;89.01;95120.22;4375813;32;20196;-48
2023/03/12 09:19:44;;;;;;;0.60;0.60;;;;;;;5.80;89.64;95121.59;4380767;32;20180;-51
2023/03/12 09:22:10;;;;;;;0.10;0.10;;;;;;;5.92;89.60;95116.03;4388871;32;20203;-48
2023/03/12 09:24:36;;;;;;;0.57;0.57;;;;;;;5.92;89.98;95118.66;4387428;32;20283;-51
2023/03/12 09:27:03;;;;;;;0.50;0.50;;;;;;;5.98;90.14;95122.87;4388083;32;20216;-48
2023/03/12 09:29:29;;;;;;;0.10;0.10;;;;;;;6.00;90.39;95120.75;4380297;32;20332;-51
2023/03/12 09:31:54;;;;;;;0.10;0.10;;;;;;;5.83;90.59;95120.22;4391656;32;20337;-51
2023/03/12 09:34:19;;;;;;;0.30;0.30;;;;;;;6.07;90.38;95123.87;4382977;32;20244;-51
2023/03/12 09:36:45;;;;;;;0.10;0.10;;;;;;;6.07;89.77;95129.13;4384089;32;20253;-50
2023/03/12 09:39:10;;;;;;;0.27;0.27;;;;;;;6.18;89.17;95127.25;4390980;32;20201;-48
2023/03/12 09:41:38;;;;;;;0.20;0.20;;;;;;;6.14;89.99;95129.66;4388866;32;20279;-48
2023/03/12 09:44:28;;;;;;;0.57;0.57;;;;;;;6.16;90.08;95137.28;4385169;32;20180;-49
2023/03/12 09:47:00;;;;;;;0.30;0.30;;;;;;;5.96;90.09;95140.78;4388544;32;20355;-50
2023/03/12 09:49:41;;;;;;;0.93;0.47;;;;;;;5.73;90.69;95141.34;4374192;32;20339;-51
2023/03/12 09:52:23;;;;;;;1.53;1.43;;;;;;;5.50;91.57;95138.22;4390702;32;20271;-47
2023/03/12 09:55:05;;;;;;;0.20;0.20;;;;;;;5.50;92.27;95143.47;4390833;32;20284;-51
2023/03/12 09:57:31;;;;;;;0.00;0.00;;;;;;;5.51;91.88;95139.78;4377810;32;20302;-49
2023/03/12 09:59:57;;;;;;;0.30;0.30;;;;;;;5.68;91.01;95131.59;4373038;32;20285;-48
2023/03/12 10:02:34;;;;;;;0.10;0.10;;;;;;;5.54;90.56;95133.22;4378297;32;20234;-47
2023/03/12 10:05:13;;;;;;;1.07;0.50;;;;;;;5.23;90.75;95137.69;4376927;32;20184;-46
2023/03/12 10:08:03;;;;;;;0.00;0.00;;;;;;;5.15;92.72;95136.41;4388161;32;20294;-49
2023/03/12 10:10:57;;;;;;;0.17;0.17;;;;;;;5.35;92.20;95137.44;4384029;32;20291;-47
2023/03/12 10:13:47;;;;;;;0.00;0.00;;;;;;;5.40;92.45;95145.34;4366485;32;20336;-52
2023/03/12 10:16:37;;;;;;;0.17;0.17;;;;;;;5.28;92.08;95140.34;4384831;32;20308;-50
2023/03/12 10:19:21;;;;;;;0.20;0.20;;;;;;;5.43;92.15;95131.63;4382950;32;20345;-48
2023/03/12 10:22:01;;;;;;;0.20;0.20;;;;;;;5.17;92.19;95136.16;4390002;32;20298;-51
2023/03/12 10:24:43;;;;;;;0.20;0.20;;;;;;;5.12;93.62;95138.78;4385495;32;20276;-52
2023/03/12 10:27:13;;;;;;;0.30;0.30;;;;;;;5.24;93.29;95139.28;4382657;32;20281;-49
2023/03/12 10:29:41;;;;;;;0.13;0.13;;;;;;;5.25;93.19;95146.13;4378266;32;20280;-49
2023/03/12 10:32:09;;;;;;;0.40;0.40;;;;;;;5.30;93.00;95135.59;4388252;32;20376;-49
2023/03/12 10:34:52;;;;;;;0.77;0.77;;;;;;;5.18;93.21;95135.09;4375409;32;20293;-50
2023/03/12 10:37:23;;;;;;;0.40;0.40;;;;;;;5.08;94.77;95132.47;4375328;32;20299;-50
2023/03/12 10:39:49;;;;;;;1.50;0.40;;;;;;;5.24;94.55;95135.88;4389908;32;20276;-49
2023/03/12 10:42:19;;;;;;;0.20;0.20;;;;;;;5.29;94.84;95130.59;4387637;32;20310;-51
2023/03/12 10:44:52;;;;;;;0.47;0.23;;;;;;;5.44;93.98;95133.22;4380379;32;20289;-53
2023/03/12 10:47:36;;;;;;;0.10;0.10;;;;;;;5.46;93.95;95136.38;4381555;32;20303;-49
2023/03/12 10:50:10;;;;;;;0.30;0.30;;;;;;;5.44;94.06;95141.91;4383193;32;20272;-49
2023/03/12 10:52:35;;;;;;;0.20;0.20;;;;;;;5.31;94.07;95133.75;4366276;32;20517;-50
2023/03/12 10:55:11;;;;;;;0.23;0.23;;;;;;;5.45;93.52;95140.06;4382042;32;20280;-49
2023/03/12 10:57:40;;;;;;;0.40;0.17;;;;;;;5.43;93.77;95142.94;4377431;32;20275;-49
2023/03/12 11:00:17;;;;;;;0.40;0.40;;;;;;;5.37;93.57;95137.97;4371701;32;20373;-51
2023/03/12 11:02:47;;;;;;;0.40;0.40;;;;;;;5.73;92.30;95138.69;4388317;32;20280;-48
2023/03/12 11:05:25;;;;;;;0.10;0.10;;;;;;;5.89;91.26;95137.63;4377363;32;20311;-49
2023/03/12 11:07:51;;;;;;;0.00;0.00;;;;;;;5.80;91.87;95136.59;4387973;32;20284;-52
2023/03/12 11:10:38;;;;;;;0.00;0.00;;;;;;;5.65;92.36;95142.66;4383968;32;20346;-53
2023/03/12 11:13:19;;;;;;;0.20;0.20;;;;;;;5.69;92.72;95137.66;4377602;32;20204;-48
2023/03/12 11:15:44;;;;;;;0.17;0.17;;;;;;;5.53;93.26;95132.44;4384617;32;20291;-50
2023/03/12 11:18:28;;;;;;;0.20;0.20;;;;;;;5.64;93.59;95141.06;4383786;32;20269;-49
2023/03/12 11:21:13;;;;;;;0.40;0.40;;;;;;;5.46;94.43;95136.38;4383710;32;20319;-50
2023/03/12 11:23:42;;;;;;;0.27;0.27;;;;;;;5.65;93.95;95137.38;4369090;32;20340;-50
2023/03/12 11:26:19;;;;;;;0.30;0.30;;;;;;;5.70;93.72;95134.75;4390452;32;20372;-49
2023/03/12 11:29:00;;;;;;;0.40;0.40;;;;;;;5.74;93.61;95127.12;4389026;32;20281;-50
2023/03/12 11:31:32;;;;;;;0.30;0.30;;;;;;;5.94;93.49;95124.47;4385044;32;20316;-52
2023/03/12 11:34:06;;;;;;;1.03;0.53;;;;;;;5.91;93.71;95132.88;4387007;32;20303;-48
2023/03/12 11:37:00;;;;;;;0.20;0.20;;;;;;;5.86;93.83;95122.34;4387336;32;20296;-49
2023/03/12 11:39:42;;;;;;;0.30;0.30;;;;;;;6.05;93.83;95128.63;4370703;32;20324;-49
2023/03/12 11:42:26;;;;;;;0.20;0.20;;;;;;;6.22;93.01;95123.03;4385711;32;20312;-48
2023/03/12 11:45:17;;;;;;;0.23;0.23;;;;;;;6.31;92.64;95117.97;4372748;32;20289;-51
2023/03/12 11:47:59;;;;;;;0.40;0.40;;;;;;;6.39;92.07;95110.31;4382331;32;20281;-51
2023/03/12 11:50:37;;;;;;;0.10;0.10;;;;;;;6.50;92.85;95121.56;4376896;32;20306;-49